International Virtual Aviation Organisation

Eastern Europe and Northern Asia MCD

 
UADD 101100Z 32004MPS 270V030 9999 NSC 21/01 Q1017 R13/0///65 NOSIG RMK QFE706/0941
QNH:(hPa/inHg/mmHg)1017 / 30.03 / 763
QFE:(hPa/inHg/mmHg)936 / 27.64 / 702
Temperature21
Dew Point1
Visibility> 10000
Weather
Cloud Cover
Transition Height5800 m./21300 ft.
Transition LevelFL220
SQUAWK